• Join FlightAware (Why Join?)
  • Login
  • US Flag 
10:05PM EDT


 

Airport Tracker/Info


-or-


 

Live Flight TrackerFlight Track Log ✈ CTA307 ✈ 03-May-2013 ✈ KPHX - KVGT

Flight Track Log - Related Links

Times and Time Zones

All times are in EDT time to prevent confusion due to time zone crossing. See the CTA307 flight status page for this flight to view local times or setup timezone preferences in your user account.

Time Position Orientation Groundspeed Altitude Reporting Facility
EDT Latitude Longitude Course Direction KTS MPH feet Rate Location/Type
01:50AM 33.4500 -111.9500 73° East 118 136 3,600  Level Phoenix TRACON
01:51AM 33.4556 -111.9378 61° Northeast 119 137 3,800 780 Climbing Albuquerque Center
01:52AM 33.4856 -111.9414 354° North 128 147 4,700 840 Climbing Albuquerque Center
01:53AM 33.5111 -111.9719 315° West 129 148 5,500 840 Climbing Albuquerque Center
01:54AM 33.5369 -112.0008 317° Northwest 126 145 6,500 900 Climbing Albuquerque Center
01:55AM 33.5619 -112.0311 315° West 128 147 7,300 840 Climbing Albuquerque Center
01:56AM 33.5867 -112.0619 314° West 128 147 8,200 840 Climbing Albuquerque Center
01:57AM 33.6139 -112.0942 315° West 136 157 9,000 840 Climbing Albuquerque Center
01:58AM 33.6411 -112.1269 315° West 139 160 9,900 840 Climbing Albuquerque Center
01:59AM 33.6697 -112.1572 319° Northwest 137 158 10,700 360 Climbing Albuquerque Center
02:00AM 33.7011 -112.1964 314° West 161 185 10,700 -60 Level Albuquerque Center
02:01AM 33.7381 -112.2411 315° West 185 213 10,600 -60 Descending Albuquerque Center
02:02AM 33.7756 -112.2839 317° Northwest 186 214 10,600  Level Albuquerque Center
02:03AM 33.8128 -112.3275 316° Northwest 186 214 10,600  Level Albuquerque Center
02:04AM 33.8447 -112.3761 308° West 187 215 10,700  Climbing Albuquerque Center
02:05AM 33.8856 -112.4158 321° Northwest 187 215 10,600 -60 Descending Albuquerque Center
02:06AM 33.9242 -112.4578 318° Northwest 185 213 10,600  Level Albuquerque Center
02:07AM 33.9606 -112.5036 314° West 189 217 10,600  Level Albuquerque Center
02:08AM 33.9983 -112.5478 316° Northwest 191 220 10,600  Level Albuquerque Center
02:09AM 34.0328 -112.5944 312° West 188 216 10,700  Climbing Albuquerque Center
02:10AM 34.0689 -112.6386 315° West 185 213 10,700 -60 Level Albuquerque Center
02:11AM 34.1058 -112.6856 314° West 190 219 10,600 -60 Descending Albuquerque Center
02:12AM 34.1436 -112.7283 317° Northwest 188 216 10,600  Level Albuquerque Center
02:13AM 34.1819 -112.7719 317° Northwest 189 217 10,600 60 Level Albuquerque Center
02:14AM 34.2217 -112.8139 319° Northwest 189 217 10,800 60 Climbing Albuquerque Center
02:15AM 34.2603 -112.8567 318° Northwest 188 216 10,800  Level Albuquerque Center
02:16AM 34.3069 -112.9081 318° Northwest 189 217 10,800  Level Albuquerque Center
02:17AM 34.3469 -112.9514 318° Northwest 191 220 10,800  Level Albuquerque Center
02:18AM 34.3839 -112.9958 315° West 188 216 10,800  Level Albuquerque Center
02:19AM 34.4222 -113.0403 316° Northwest 190 219 10,800  Level Albuquerque Center
02:20AM 34.4581 -113.0758 321° Northwest 191 220 10,800  Level Albuquerque Center
02:21AM 34.4986 -113.1206 318° Northwest 194 223 10,800  Level Albuquerque Center
02:22AM 34.5361 -113.1653 316° Northwest 193 222 10,800  Level Albuquerque Center
02:23AM 34.5736 -113.2097 316° Northwest 191 220 10,800  Level Albuquerque Center
02:24AM 34.6131 -113.2506 320° Northwest 190 219 10,900  Climbing Albuquerque Center
02:25AM 34.6525 -113.2900 321° Northwest 187 215 10,800 -60 Descending Albuquerque Center
02:26AM 34.6958 -113.3419 315° West 184 212 10,800  Level Albuquerque Center
02:27AM 34.7344 -113.3828 319° Northwest 184 212 10,800  Level Albuquerque Center
02:28AM 34.7711 -113.4242 317° Northwest 183 211 10,800  Level Albuquerque Center
02:29AM 34.8061 -113.4667 315° West 181 208 10,800  Level Albuquerque Center
02:30AM 34.8439 -113.5056 320° Northwest 179 206 10,800  Level Albuquerque Center
02:31AM 34.8808 -113.5453 319° Northwest 179 206 10,800 -120 Level Albuquerque Center
02:31AM 34.8944 -113.5631 313° West 178 205 10,700  Descending Los Angeles Center
02:32AM 34.9219 -113.5978 314° West 178 205 10,800  Climbing Los Angeles Center
02:33AM 34.9639 -113.6500 314° West 179 206 10,700 -60 Descending Los Angeles Center
02:34AM 34.9989 -113.6919 316° Northwest 178 205 10,700  Level Los Angeles Center
02:35AM 35.0322 -113.7364 312° West 178 205 10,700  Level Los Angeles Center
02:36AM 35.0669 -113.7792 315° West 178 205 10,700  Level Los Angeles Center
02:37AM 35.1011 -113.8228 314° West 178 205 10,700  Level Los Angeles Center
02:38AM 35.1375 -113.8597 320° Northwest 174 200 10,800 60 Climbing Los Angeles Center
02:39AM 35.1756 -113.8978 321° Northwest 176 203 10,900  Climbing Los Angeles Center
02:40AM 35.2028 -113.9522 301° West 182 209 10,900 -60 Level Los Angeles Center
02:41AM 35.2311 -114.0039 304° West 182 209 10,800 -60 Descending Los Angeles Center
02:42AM 35.2653 -114.0478 314° West 179 206 10,800 -60 Level Los Angeles Center
02:43AM 35.3014 -114.0928 315° West 183 211 10,700 -60 Descending Los Angeles Center
02:44AM 35.3353 -114.1378 313° West 182 209 10,700  Level Los Angeles Center
02:45AM 35.3703 -114.1817 314° West 180 207 10,800  Climbing Los Angeles Center
02:46AM 35.4119 -114.2358 313° West 182 209 10,800 -120 Level Los Angeles Center
02:48AM 35.4500 -114.2800 317° Northwest 186 214 10,600 -180 Descending Los Angeles Center
02:49AM 35.4869 -114.3247 315° West 186 214 10,500 -60 Descending Los Angeles Center
02:50AM 35.5233 -114.3683 316° Northwest 185 213 10,500  Level Los Angeles Center
02:51AM 35.5667 -114.4197 316° Northwest 180 207 10,600  Climbing Los Angeles Center
02:52AM 35.6044 -114.4625 317° Northwest 184 212 10,600  Level Los Angeles Center
02:53AM 35.6400 -114.5064 315° West 182 209 10,600  Level Los Angeles Center
02:53AM 35.6636 -114.5328 318° Northwest 185 213 10,600 -120 Level Los Angeles Center
02:54AM 35.6767 -114.5514 311° West 186 214 10,500 -120 Descending Los Angeles Center
02:54AM 35.6967 -114.5747 317° Northwest 185 213 10,500  Level Los Angeles Center
02:55AM 35.7133 -114.5958 314° West 186 214 10,500 60 Level Los Angeles Center
02:55AM 35.7356 -114.6225 316° Northwest 185 213 10,600  Climbing Los Angeles Center
02:56AM 35.7492 -114.6406 313° West 184 212 10,500 -120 Descending Los Angeles Center
02:56AM 35.7750 -114.6731 314° West 186 214 10,500  Level Los Angeles Center
02:57AM 35.7853 -114.6869 312° West 186 214 10,500  Level Los Angeles Center
02:57AM 35.8081 -114.7150 315° West 186 214 10,500  Level Los Angeles Center
02:58AM 35.8211 -114.7336 311° West 188 216 10,500  Level Los Angeles Center
02:58AM 35.8422 -114.7619 313° West 183 211 10,500  Level Los Angeles Center
02:59AM 35.8578 -114.7775 321° Northwest 184 212 10,500  Level Los Angeles Center
02:59AM 35.8800 -114.8053 315° West 184 212 10,500  Level Los Angeles Center
03:00AM 35.8939 -114.8222 315° West 184 212 10,500 -420 Level Los Angeles Center
03:00AM 35.9156 -114.8492 315° West 184 212 10,100 -1,140 Descending Los Angeles Center
03:01AM 35.9336 -114.8672 321° Northwest 189 217 9,400 -1,620 Descending Los Angeles Center
03:01AM 35.9628 -114.8972 320° Northwest 216 249 8,500 -840 Descending Los Angeles Center
03:02AM 35.9719 -114.9044 327° Northwest 205 236 8,600 -600 Climbing Los Angeles Center
03:02AM 36.0044 -114.9392 319° Northwest 192 221 7,900 -1,620 Descending Los Angeles Center
03:03AM 36.0228 -114.9569 322° Northwest 204 235 7,000 -1,320 Descending Los Angeles Center
03:03AM 36.0478 -114.9886 314° West 209 241 6,600 -420 Descending Los Angeles Center
03:04AM 36.0636 -115.0044 321° Northwest 203 234 6,600 -120 Level Los Angeles Center
03:04AM 36.0847 -115.0297 316° Northwest 176 203 6,500 -840 Descending Los Angeles Center
03:05AM 36.0997 -115.0453 320° Northwest 185 213 5,800 -1,980 Descending Los Angeles Center
03:05AM 36.1244 -115.0831 309° West 204 235 4,500 -1,680 Descending Los Angeles Center
03:06AM 36.1378 -115.0956 323° Northwest 190 219 3,800 -900 Descending Los Angeles Center
03:06AM 36.1606 -115.1297 310° West 176 203 3,600 -540 Descending Los Angeles Center
03:07AM 36.1803 -115.1500 320° Northwest 189 217 3,300 -900 Descending Los Angeles Center
03:07AM 36.1883 -115.1683 299° West 138 159 2,700 -1,020 Descending Los Angeles Center
03:08AM 36.2036 -115.1833 322° Northwest 156 180 2,300 -600 Descending Los Angeles Center
03:10AM 36.2000 -115.1833 North  Level FlightAware Approximate
03:17AM 36.2107 -115.1944 North  Level Estimated
03:18AM 36.2107 -115.1944 North  Level Estimated
03:19AM 36.2107 -115.1944 North  Level Estimated